sensor_id;sensor_type;location;lat;lon;timestamp;P1;durP1;ratioP1;P2;durP2;ratioP2
53299;SDS011;39187;48.476;8.310;2022-12-26T00:01:27;2.97;;;2.20;;
53299;SDS011;39187;48.476;8.310;2022-12-26T00:03:54;3.40;;;2.40;;
53299;SDS011;39187;48.476;8.310;2022-12-26T00:06:21;2.73;;;2.60;;
53299;SDS011;39187;48.476;8.310;2022-12-26T00:08:49;2.57;;;2.47;;
53299;SDS011;39187;48.476;8.310;2022-12-26T00:11:15;2.93;;;2.73;;
53299;SDS011;39187;48.476;8.310;2022-12-26T00:13:41;2.60;;;2.30;;
53299;SDS011;39187;48.476;8.310;2022-12-26T00:16:25;2.17;;;2.07;;
53299;SDS011;39187;48.476;8.310;2022-12-26T00:18:52;4.90;;;3.07;;
53299;SDS011;39187;48.476;8.310;2022-12-26T00:21:17;2.70;;;2.60;;
53299;SDS011;39187;48.476;8.310;2022-12-26T00:23:43;2.33;;;2.13;;
53299;SDS011;39187;48.476;8.310;2022-12-26T00:26:10;6.03;;;2.67;;
53299;SDS011;39187;48.476;8.310;2022-12-26T00:28:43;2.70;;;2.60;;
53299;SDS011;39187;48.476;8.310;2022-12-26T00:31:13;2.33;;;2.23;;
53299;SDS011;39187;48.476;8.310;2022-12-26T00:33:40;8.13;;;2.90;;
53299;SDS011;39187;48.476;8.310;2022-12-26T00:36:06;3.93;;;2.10;;
53299;SDS011;39187;48.476;8.310;2022-12-26T00:38:34;2.37;;;2.27;;
53299;SDS011;39187;48.476;8.310;2022-12-26T00:41:02;4.10;;;2.57;;
53299;SDS011;39187;48.476;8.310;2022-12-26T00:43:28;2.47;;;2.37;;
53299;SDS011;39187;48.476;8.310;2022-12-26T00:45:54;4.83;;;2.13;;
53299;SDS011;39187;48.476;8.310;2022-12-26T00:48:19;2.33;;;2.07;;
53299;SDS011;39187;48.476;8.310;2022-12-26T00:50:45;3.00;;;2.80;;
53299;SDS011;39187;48.476;8.310;2022-12-26T00:53:10;2.20;;;1.97;;
53299;SDS011;39187;48.476;8.310;2022-12-26T00:55:36;3.53;;;3.37;;
53299;SDS011;39187;48.476;8.310;2022-12-26T00:58:01;2.30;;;2.20;;
53299;SDS011;39187;48.476;8.310;2022-12-26T01:00:27;2.00;;;1.80;;
53299;SDS011;39187;48.476;8.310;2022-12-26T01:02:52;2.80;;;2.27;;
53299;SDS011;39187;48.476;8.310;2022-12-26T01:05:18;3.87;;;2.10;;
53299;SDS011;39187;48.476;8.310;2022-12-26T01:07:43;2.87;;;2.63;;
53299;SDS011;39187;48.476;8.310;2022-12-26T01:10:10;3.07;;;2.87;;
53299;SDS011;39187;48.476;8.310;2022-12-26T01:12:37;2.80;;;2.47;;
53299;SDS011;39187;48.476;8.310;2022-12-26T01:15:03;3.77;;;2.43;;
53299;SDS011;39187;48.476;8.310;2022-12-26T01:17:30;3.93;;;3.03;;
53299;SDS011;39187;48.476;8.310;2022-12-26T01:19:55;2.30;;;2.20;;
53299;SDS011;39187;48.476;8.310;2022-12-26T01:22:21;3.03;;;2.87;;
53299;SDS011;39187;48.476;8.310;2022-12-26T01:24:48;5.10;;;2.47;;
53299;SDS011;39187;48.476;8.310;2022-12-26T01:27:14;2.77;;;2.67;;
53299;SDS011;39187;48.476;8.310;2022-12-26T01:29:39;2.67;;;2.57;;
53299;SDS011;39187;48.476;8.310;2022-12-26T01:32:05;2.43;;;2.33;;
53299;SDS011;39187;48.476;8.310;2022-12-26T01:34:30;5.00;;;2.70;;
53299;SDS011;39187;48.476;8.310;2022-12-26T01:36:56;3.10;;;2.90;;
53299;SDS011;39187;48.476;8.310;2022-12-26T01:39:22;6.07;;;3.00;;
53299;SDS011;39187;48.476;8.310;2022-12-26T01:41:47;7.83;;;3.07;;
53299;SDS011;39187;48.476;8.310;2022-12-26T01:47:19;2.87;;;2.77;;
53299;SDS011;39187;48.476;8.310;2022-12-26T01:49:47;2.50;;;2.40;;
53299;SDS011;39187;48.476;8.310;2022-12-26T01:52:18;3.00;;;2.80;;
53299;SDS011;39187;48.476;8.310;2022-12-26T01:54:49;2.60;;;2.50;;
53299;SDS011;39187;48.476;8.310;2022-12-26T01:57:20;3.10;;;2.90;;
53299;SDS011;39187;48.476;8.310;2022-12-26T01:59:49;12.70;;;3.30;;
53299;SDS011;39187;48.476;8.310;2022-12-26T02:02:17;3.00;;;2.90;;
53299;SDS011;39187;48.476;8.310;2022-12-26T02:04:46;7.27;;;3.13;;
53299;SDS011;39187;48.476;8.310;2022-12-26T02:07:34;3.20;;;3.00;;
53299;SDS011;39187;48.476;8.310;2022-12-26T02:10:02;2.80;;;2.60;;
53299;SDS011;39187;48.476;8.310;2022-12-26T02:12:32;2.93;;;2.83;;
53299;SDS011;39187;48.476;8.310;2022-12-26T02:14:58;2.90;;;2.70;;
53299;SDS011;39187;48.476;8.310;2022-12-26T02:17:25;4.10;;;3.80;;
53299;SDS011;39187;48.476;8.310;2022-12-26T02:19:55;4.50;;;2.67;;
53299;SDS011;39187;48.476;8.310;2022-12-26T02:42:22;2.60;;;2.40;;
53299;SDS011;39187;48.476;8.310;2022-12-26T02:45:00;3.80;;;2.67;;
53299;SDS011;39187;48.476;8.310;2022-12-26T02:54:13;3.00;;;2.90;;
53299;SDS011;39187;48.476;8.310;2022-12-26T02:57:07;3.20;;;3.00;;
53299;SDS011;39187;48.476;8.310;2022-12-26T03:00:02;2.33;;;2.23;;
53299;SDS011;39187;48.476;8.310;2022-12-26T03:06:02;3.40;;;3.20;;
53299;SDS011;39187;48.476;8.310;2022-12-26T03:08:55;3.00;;;2.90;;
53299;SDS011;39187;48.476;8.310;2022-12-26T03:11:44;2.70;;;2.60;;
53299;SDS011;39187;48.476;8.310;2022-12-26T03:14:34;3.67;;;3.43;;
53299;SDS011;39187;48.476;8.310;2022-12-26T03:17:05;2.47;;;2.37;;
53299;SDS011;39187;48.476;8.310;2022-12-26T03:19:56;2.67;;;2.57;;
53299;SDS011;39187;48.476;8.310;2022-12-26T03:24:59;3.33;;;3.13;;
53299;SDS011;39187;48.476;8.310;2022-12-26T03:27:45;2.93;;;2.80;;
53299;SDS011;39187;48.476;8.310;2022-12-26T03:30:11;2.33;;;2.23;;
53299;SDS011;39187;48.476;8.310;2022-12-26T03:32:56;3.50;;;2.60;;
53299;SDS011;39187;48.476;8.310;2022-12-26T03:35:22;3.10;;;2.80;;
53299;SDS011;39187;48.476;8.310;2022-12-26T03:37:56;3.27;;;3.07;;
53299;SDS011;39187;48.476;8.310;2022-12-26T03:47:15;3.70;;;3.50;;
53299;SDS011;39187;48.476;8.310;2022-12-26T03:50:06;2.80;;;2.70;;
53299;SDS011;39187;48.476;8.310;2022-12-26T03:53:03;7.23;;;3.10;;
53299;SDS011;39187;48.476;8.310;2022-12-26T03:56:05;6.10;;;2.50;;
53299;SDS011;39187;48.476;8.310;2022-12-26T03:59:03;3.23;;;3.00;;
53299;SDS011;39187;48.476;8.310;2022-12-26T04:01:56;2.93;;;2.73;;
53299;SDS011;39187;48.476;8.310;2022-12-26T04:04:46;3.00;;;2.80;;
53299;SDS011;39187;48.476;8.310;2022-12-26T04:07:35;2.70;;;2.60;;
53299;SDS011;39187;48.476;8.310;2022-12-26T04:10:30;3.50;;;3.30;;
53299;SDS011;39187;48.476;8.310;2022-12-26T04:17:21;3.07;;;2.50;;
53299;SDS011;39187;48.476;8.310;2022-12-26T04:22:44;2.70;;;2.50;;
53299;SDS011;39187;48.476;8.310;2022-12-26T04:25:45;3.17;;;2.77;;
53299;SDS011;39187;48.476;8.310;2022-12-26T04:28:35;4.60;;;2.90;;
53299;SDS011;39187;48.476;8.310;2022-12-26T04:31:29;3.67;;;3.30;;
53299;SDS011;39187;48.476;8.310;2022-12-26T04:34:23;4.13;;;2.57;;
53299;SDS011;39187;48.476;8.310;2022-12-26T04:37:16;3.27;;;2.97;;
53299;SDS011;39187;48.476;8.310;2022-12-26T04:40:06;3.30;;;3.00;;
53299;SDS011;39187;48.476;8.310;2022-12-26T04:42:55;3.07;;;2.80;;
53299;SDS011;39187;48.476;8.310;2022-12-26T04:45:40;4.67;;;3.03;;
53299;SDS011;39187;48.476;8.310;2022-12-26T04:48:06;3.63;;;2.47;;
53299;SDS011;39187;48.476;8.310;2022-12-26T04:50:50;3.27;;;3.07;;
53299;SDS011;39187;48.476;8.310;2022-12-26T04:53:17;3.80;;;3.50;;
53299;SDS011;39187;48.476;8.310;2022-12-26T04:55:44;6.87;;;2.80;;
53299;SDS011;39187;48.476;8.310;2022-12-26T04:58:10;2.70;;;2.60;;
53299;SDS011;39187;48.476;8.310;2022-12-26T05:00:36;3.37;;;3.03;;
53299;SDS011;39187;48.476;8.310;2022-12-26T05:03:01;2.53;;;2.40;;
53299;SDS011;39187;48.476;8.310;2022-12-26T05:05:46;4.97;;;3.03;;
53299;SDS011;39187;48.476;8.310;2022-12-26T05:08:37;3.10;;;3.00;;
53299;SDS011;39187;48.476;8.310;2022-12-26T05:11:25;3.63;;;3.20;;
53299;SDS011;39187;48.476;8.310;2022-12-26T05:13:52;3.80;;;3.63;;
53299;SDS011;39187;48.476;8.310;2022-12-26T05:16:19;4.40;;;2.50;;
53299;SDS011;39187;48.476;8.310;2022-12-26T05:19:04;3.80;;;3.13;;
53299;SDS011;39187;48.476;8.310;2022-12-26T05:21:47;4.57;;;3.20;;
53299;SDS011;39187;48.476;8.310;2022-12-26T05:24:33;3.83;;;3.53;;
53299;SDS011;39187;48.476;8.310;2022-12-26T05:27:19;3.20;;;2.77;;
53299;SDS011;39187;48.476;8.310;2022-12-26T05:30:04;3.30;;;3.10;;
53299;SDS011;39187;48.476;8.310;2022-12-26T05:32:31;7.33;;;3.13;;
53299;SDS011;39187;48.476;8.310;2022-12-26T05:35:15;3.47;;;3.27;;
53299;SDS011;39187;48.476;8.310;2022-12-26T05:37:40;2.63;;;2.53;;
53299;SDS011;39187;48.476;8.310;2022-12-26T05:40:06;2.73;;;2.60;;
53299;SDS011;39187;48.476;8.310;2022-12-26T05:42:32;3.23;;;3.03;;
53299;SDS011;39187;48.476;8.310;2022-12-26T05:44:58;3.60;;;3.00;;
53299;SDS011;39187;48.476;8.310;2022-12-26T05:47:23;3.40;;;3.20;;
53299;SDS011;39187;48.476;8.310;2022-12-26T05:49:49;3.20;;;2.90;;
53299;SDS011;39187;48.476;8.310;2022-12-26T05:52:14;4.70;;;2.83;;
53299;SDS011;39187;48.476;8.310;2022-12-26T05:54:40;2.70;;;2.60;;
53299;SDS011;39187;48.476;8.310;2022-12-26T05:57:05;2.67;;;2.57;;
53299;SDS011;39187;48.476;8.310;2022-12-26T05:59:31;2.63;;;2.53;;
53299;SDS011;39187;48.476;8.310;2022-12-26T06:01:56;3.03;;;2.80;;
53299;SDS011;39187;48.476;8.310;2022-12-26T06:04:22;7.23;;;3.13;;
53299;SDS011;39187;48.476;8.310;2022-12-26T06:06:47;3.97;;;3.77;;
53299;SDS011;39187;48.476;8.310;2022-12-26T06:09:13;3.40;;;3.20;;
53299;SDS011;39187;48.476;8.310;2022-12-26T06:11:38;3.10;;;2.90;;
53299;SDS011;39187;48.476;8.310;2022-12-26T06:14:04;4.40;;;4.10;;
53299;SDS011;39187;48.476;8.310;2022-12-26T06:16:29;3.23;;;2.80;;
53299;SDS011;39187;48.476;8.310;2022-12-26T06:18:55;3.80;;;3.60;;
53299;SDS011;39187;48.476;8.310;2022-12-26T06:21:22;2.97;;;2.87;;
53299;SDS011;39187;48.476;8.310;2022-12-26T06:23:48;4.00;;;3.20;;
53299;SDS011;39187;48.476;8.310;2022-12-26T06:26:15;3.17;;;3.00;;
53299;SDS011;39187;48.476;8.310;2022-12-26T06:28:41;3.40;;;2.83;;
53299;SDS011;39187;48.476;8.310;2022-12-26T06:31:09;2.50;;;2.37;;
53299;SDS011;39187;48.476;8.310;2022-12-26T06:33:36;3.90;;;3.60;;
53299;SDS011;39187;48.476;8.310;2022-12-26T06:36:05;3.23;;;2.93;;
53299;SDS011;39187;48.476;8.310;2022-12-26T06:38:32;6.00;;;3.60;;
53299;SDS011;39187;48.476;8.310;2022-12-26T06:40:58;4.47;;;3.10;;
53299;SDS011;39187;48.476;8.310;2022-12-26T06:43:23;3.63;;;2.60;;
53299;SDS011;39187;48.476;8.310;2022-12-26T06:45:59;3.97;;;2.90;;
53299;SDS011;39187;48.476;8.310;2022-12-26T06:48:25;3.67;;;3.23;;
53299;SDS011;39187;48.476;8.310;2022-12-26T06:50:51;4.47;;;3.43;;
53299;SDS011;39187;48.476;8.310;2022-12-26T06:53:18;5.60;;;4.00;;
53299;SDS011;39187;48.476;8.310;2022-12-26T06:55:45;4.00;;;3.17;;
53299;SDS011;39187;48.476;8.310;2022-12-26T06:58:11;4.53;;;3.07;;
53299;SDS011;39187;48.476;8.310;2022-12-26T07:00:37;3.70;;;3.17;;
53299;SDS011;39187;48.476;8.310;2022-12-26T07:03:02;4.20;;;2.83;;
53299;SDS011;39187;48.476;8.310;2022-12-26T07:05:28;3.53;;;2.67;;
53299;SDS011;39187;48.476;8.310;2022-12-26T07:07:53;3.10;;;3.00;;
53299;SDS011;39187;48.476;8.310;2022-12-26T07:10:19;3.43;;;3.03;;
53299;SDS011;39187;48.476;8.310;2022-12-26T07:12:45;3.07;;;2.73;;
53299;SDS011;39187;48.476;8.310;2022-12-26T07:15:12;3.03;;;2.57;;
53299;SDS011;39187;48.476;8.310;2022-12-26T07:17:38;2.53;;;2.43;;
53299;SDS011;39187;48.476;8.310;2022-12-26T07:20:04;5.73;;;2.83;;
53299;SDS011;39187;48.476;8.310;2022-12-26T07:22:30;3.23;;;3.03;;
53299;SDS011;39187;48.476;8.310;2022-12-26T07:24:56;3.20;;;2.87;;
53299;SDS011;39187;48.476;8.310;2022-12-26T07:27:21;2.87;;;2.70;;
53299;SDS011;39187;48.476;8.310;2022-12-26T07:29:47;3.07;;;2.80;;
53299;SDS011;39187;48.476;8.310;2022-12-26T07:32:12;5.60;;;2.67;;
53299;SDS011;39187;48.476;8.310;2022-12-26T07:34:38;4.47;;;3.20;;
53299;SDS011;39187;48.476;8.310;2022-12-26T07:37:03;3.87;;;3.57;;
53299;SDS011;39187;48.476;8.310;2022-12-26T07:39:29;12.83;;;5.27;;
53299;SDS011;39187;48.476;8.310;2022-12-26T07:41:55;3.90;;;3.50;;
53299;SDS011;39187;48.476;8.310;2022-12-26T07:44:26;4.20;;;3.80;;
53299;SDS011;39187;48.476;8.310;2022-12-26T07:46:54;5.70;;;2.80;;
53299;SDS011;39187;48.476;8.310;2022-12-26T07:49:20;4.70;;;3.83;;
53299;SDS011;39187;48.476;8.310;2022-12-26T07:51:46;3.60;;;3.40;;
53299;SDS011;39187;48.476;8.310;2022-12-26T07:54:13;3.40;;;3.30;;
53299;SDS011;39187;48.476;8.310;2022-12-26T07:56:39;4.43;;;4.00;;
53299;SDS011;39187;48.476;8.310;2022-12-26T07:59:04;4.27;;;3.97;;
53299;SDS011;39187;48.476;8.310;2022-12-26T08:01:30;5.17;;;4.67;;
53299;SDS011;39187;48.476;8.310;2022-12-26T08:03:56;4.47;;;3.67;;
53299;SDS011;39187;48.476;8.310;2022-12-26T08:06:21;5.17;;;4.77;;
53299;SDS011;39187;48.476;8.310;2022-12-26T08:08:47;3.87;;;3.67;;
53299;SDS011;39187;48.476;8.310;2022-12-26T08:11:15;6.93;;;4.40;;
53299;SDS011;39187;48.476;8.310;2022-12-26T08:13:43;4.50;;;4.10;;
53299;SDS011;39187;48.476;8.310;2022-12-26T08:16:10;10.73;;;4.30;;
53299;SDS011;39187;48.476;8.310;2022-12-26T08:18:37;7.00;;;4.43;;
53299;SDS011;39187;48.476;8.310;2022-12-26T08:21:03;5.17;;;4.87;;
53299;SDS011;39187;48.476;8.310;2022-12-26T08:23:28;5.70;;;5.23;;
53299;SDS011;39187;48.476;8.310;2022-12-26T08:25:54;5.47;;;5.17;;
53299;SDS011;39187;48.476;8.310;2022-12-26T08:28:20;6.57;;;4.67;;
53299;SDS011;39187;48.476;8.310;2022-12-26T08:30:46;5.20;;;4.80;;
53299;SDS011;39187;48.476;8.310;2022-12-26T08:33:13;6.00;;;5.40;;
53299;SDS011;39187;48.476;8.310;2022-12-26T08:35:40;4.90;;;4.60;;
53299;SDS011;39187;48.476;8.310;2022-12-26T08:38:05;4.70;;;4.40;;
53299;SDS011;39187;48.476;8.310;2022-12-26T08:40:31;6.40;;;5.93;;
53299;SDS011;39187;48.476;8.310;2022-12-26T08:42:57;6.27;;;5.60;;
53299;SDS011;39187;48.476;8.310;2022-12-26T08:45:22;5.57;;;5.17;;
53299;SDS011;39187;48.476;8.310;2022-12-26T08:47:48;5.47;;;5.17;;
53299;SDS011;39187;48.476;8.310;2022-12-26T08:50:14;5.47;;;5.07;;
53299;SDS011;39187;48.476;8.310;2022-12-26T08:52:41;5.10;;;4.80;;
53299;SDS011;39187;48.476;8.310;2022-12-26T08:55:07;5.50;;;4.97;;
53299;SDS011;39187;48.476;8.310;2022-12-26T08:57:33;4.67;;;4.47;;
53299;SDS011;39187;48.476;8.310;2022-12-26T08:59:58;4.60;;;4.40;;
53299;SDS011;39187;48.476;8.310;2022-12-26T09:02:24;4.17;;;3.97;;
53299;SDS011;39187;48.476;8.310;2022-12-26T09:04:49;4.77;;;4.37;;
53299;SDS011;39187;48.476;8.310;2022-12-26T09:07:15;4.40;;;4.20;;
53299;SDS011;39187;48.476;8.310;2022-12-26T09:12:10;4.23;;;3.93;;
53299;SDS011;39187;48.476;8.310;2022-12-26T09:14:35;3.73;;;3.43;;
53299;SDS011;39187;48.476;8.310;2022-12-26T09:17:01;4.47;;;4.17;;
53299;SDS011;39187;48.476;8.310;2022-12-26T09:19:27;2.93;;;2.80;;
53299;SDS011;39187;48.476;8.310;2022-12-26T09:21:56;2.70;;;2.60;;
53299;SDS011;39187;48.476;8.310;2022-12-26T09:24:41;4.93;;;4.63;;
53299;SDS011;39187;48.476;8.310;2022-12-26T09:27:07;2.17;;;2.07;;
53299;SDS011;39187;48.476;8.310;2022-12-26T09:29:32;1.77;;;1.70;;
53299;SDS011;39187;48.476;8.310;2022-12-26T09:31:58;1.70;;;1.60;;
53299;SDS011;39187;48.476;8.310;2022-12-26T09:34:23;2.00;;;1.90;;
53299;SDS011;39187;48.476;8.310;2022-12-26T09:36:49;1.83;;;1.73;;
53299;SDS011;39187;48.476;8.310;2022-12-26T09:39:15;3.20;;;1.83;;
53299;SDS011;39187;48.476;8.310;2022-12-26T09:49:46;2.90;;;1.13;;
53299;SDS011;39187;48.476;8.310;2022-12-26T09:52:23;0.87;;;0.87;;
53299;SDS011;39187;48.476;8.310;2022-12-26T09:55:02;0.83;;;0.83;;
53299;SDS011;39187;48.476;8.310;2022-12-26T09:57:39;0.80;;;0.80;;
53299;SDS011;39187;48.476;8.310;2022-12-26T10:00:15;0.90;;;0.90;;
53299;SDS011;39187;48.476;8.310;2022-12-26T10:02:46;0.80;;;0.80;;
53299;SDS011;39187;48.476;8.310;2022-12-26T10:05:15;1.60;;;0.90;;
53299;SDS011;39187;48.476;8.310;2022-12-26T10:07:42;0.80;;;0.80;;
53299;SDS011;39187;48.476;8.310;2022-12-26T10:10:11;0.97;;;0.87;;
53299;SDS011;39187;48.476;8.310;2022-12-26T10:18:06;1.00;;;1.00;;
53299;SDS011;39187;48.476;8.310;2022-12-26T10:28:36;1.20;;;1.20;;
53299;SDS011;39187;48.476;8.310;2022-12-26T10:31:11;1.20;;;1.13;;
53299;SDS011;39187;48.476;8.310;2022-12-26T10:33:49;0.77;;;0.77;;
53299;SDS011;39187;48.476;8.310;2022-12-26T10:36:25;0.80;;;0.80;;
53299;SDS011;39187;48.476;8.310;2022-12-26T10:38:56;0.80;;;0.80;;
53299;SDS011;39187;48.476;8.310;2022-12-26T10:41:30;1.00;;;1.00;;
53299;SDS011;39187;48.476;8.310;2022-12-26T10:44:01;0.80;;;0.80;;
53299;SDS011;39187;48.476;8.310;2022-12-26T10:49:17;0.87;;;0.70;;
53299;SDS011;39187;48.476;8.310;2022-12-26T10:51:50;1.57;;;0.80;;
53299;SDS011;39187;48.476;8.310;2022-12-26T10:54:17;2.40;;;0.70;;
53299;SDS011;39187;48.476;8.310;2022-12-26T10:56:44;1.40;;;0.73;;
53299;SDS011;39187;48.476;8.310;2022-12-26T10:59:16;0.80;;;0.80;;
53299;SDS011;39187;48.476;8.310;2022-12-26T11:01:44;1.10;;;0.67;;
53299;SDS011;39187;48.476;8.310;2022-12-26T11:04:23;0.80;;;0.80;;
53299;SDS011;39187;48.476;8.310;2022-12-26T11:06:51;0.70;;;0.70;;
53299;SDS011;39187;48.476;8.310;2022-12-26T11:09:32;0.93;;;0.93;;
53299;SDS011;39187;48.476;8.310;2022-12-26T11:12:02;0.83;;;0.83;;
53299;SDS011;39187;48.476;8.310;2022-12-26T11:14:31;0.80;;;0.80;;
53299;SDS011;39187;48.476;8.310;2022-12-26T11:16:58;0.80;;;0.80;;
53299;SDS011;39187;48.476;8.310;2022-12-26T11:19:31;0.77;;;0.77;;
53299;SDS011;39187;48.476;8.310;2022-12-26T11:22:24;0.80;;;0.80;;
53299;SDS011;39187;48.476;8.310;2022-12-26T11:27:45;0.80;;;0.80;;
53299;SDS011;39187;48.476;8.310;2022-12-26T11:30:20;0.70;;;0.60;;
53299;SDS011;39187;48.476;8.310;2022-12-26T11:33:11;0.80;;;0.80;;
53299;SDS011;39187;48.476;8.310;2022-12-26T11:35:50;1.20;;;0.90;;
53299;SDS011;39187;48.476;8.310;2022-12-26T11:38:20;0.90;;;0.90;;
53299;SDS011;39187;48.476;8.310;2022-12-26T11:41:04;0.90;;;0.90;;
53299;SDS011;39187;48.476;8.310;2022-12-26T11:43:53;0.70;;;0.70;;
53299;SDS011;39187;48.476;8.310;2022-12-26T11:46:21;1.03;;;0.97;;
53299;SDS011;39187;48.476;8.310;2022-12-26T11:48:58;1.27;;;1.20;;
53299;SDS011;39187;48.476;8.310;2022-12-26T11:51:40;1.00;;;1.00;;
53299;SDS011;39187;48.476;8.310;2022-12-26T11:57:00;1.37;;;1.00;;
53299;SDS011;39187;48.476;8.310;2022-12-26T11:59:37;0.80;;;0.80;;
53299;SDS011;39187;48.476;8.310;2022-12-26T12:02:17;0.80;;;0.80;;
53299;SDS011;39187;48.476;8.310;2022-12-26T12:04:46;1.37;;;1.27;;
53299;SDS011;39187;48.476;8.310;2022-12-26T12:07:22;1.17;;;1.17;;
53299;SDS011;39187;48.476;8.310;2022-12-26T12:12:45;2.23;;;1.30;;
53299;SDS011;39187;48.476;8.310;2022-12-26T12:16:04;0.87;;;0.87;;
53299;SDS011;39187;48.476;8.310;2022-12-26T12:18:42;1.10;;;1.10;;
53299;SDS011;39187;48.476;8.310;2022-12-26T12:32:09;1.60;;;1.50;;
53299;SDS011;39187;48.476;8.310;2022-12-26T12:37:33;1.40;;;1.30;;
53299;SDS011;39187;48.476;8.310;2022-12-26T12:50:58;1.30;;;1.30;;
53299;SDS011;39187;48.476;8.310;2022-12-26T13:02:03;1.57;;;1.47;;
53299;SDS011;39187;48.476;8.310;2022-12-26T13:04:39;1.70;;;1.60;;
53299;SDS011;39187;48.476;8.310;2022-12-26T13:07:13;1.10;;;0.93;;
53299;SDS011;39187;48.476;8.310;2022-12-26T13:09:51;1.30;;;1.20;;
53299;SDS011;39187;48.476;8.310;2022-12-26T13:12:22;1.13;;;1.13;;
53299;SDS011;39187;48.476;8.310;2022-12-26T13:15:07;1.27;;;1.20;;
53299;SDS011;39187;48.476;8.310;2022-12-26T13:20:27;1.00;;;1.00;;
53299;SDS011;39187;48.476;8.310;2022-12-26T13:23:03;1.17;;;1.07;;
53299;SDS011;39187;48.476;8.310;2022-12-26T13:26:01;1.10;;;1.10;;
53299;SDS011;39187;48.476;8.310;2022-12-26T13:28:35;1.80;;;1.27;;
53299;SDS011;39187;48.476;8.310;2022-12-26T13:31:08;1.70;;;1.60;;
53299;SDS011;39187;48.476;8.310;2022-12-26T13:33:33;1.70;;;1.53;;
53299;SDS011;39187;48.476;8.310;2022-12-26T13:36:00;1.13;;;1.13;;
53299;SDS011;39187;48.476;8.310;2022-12-26T13:41:20;1.13;;;1.13;;
53299;SDS011;39187;48.476;8.310;2022-12-26T13:44:06;1.37;;;1.37;;
53299;SDS011;39187;48.476;8.310;2022-12-26T14:05:47;1.87;;;1.77;;
53299;SDS011;39187;48.476;8.310;2022-12-26T14:08:38;1.30;;;1.30;;
53299;SDS011;39187;48.476;8.310;2022-12-26T14:11:23;3.33;;;1.47;;
53299;SDS011;39187;48.476;8.310;2022-12-26T14:17:25;1.70;;;1.60;;
53299;SDS011;39187;48.476;8.310;2022-12-26T14:28:22;1.30;;;1.20;;
53299;SDS011;39187;48.476;8.310;2022-12-26T14:44:48;0.80;;;0.80;;
53299;SDS011;39187;48.476;8.310;2022-12-26T14:47:33;0.90;;;0.90;;
53299;SDS011;39187;48.476;8.310;2022-12-26T14:56:06;0.83;;;0.83;;
53299;SDS011;39187;48.476;8.310;2022-12-26T14:59:37;1.30;;;1.20;;
53299;SDS011;39187;48.476;8.310;2022-12-26T15:01:46;1.60;;;1.23;;
53299;SDS011;39187;48.476;8.310;2022-12-26T15:04:21;0.90;;;0.90;;
53299;SDS011;39187;48.476;8.310;2022-12-26T15:07:08;1.17;;;1.17;;
53299;SDS011;39187;48.476;8.310;2022-12-26T15:35:53;0.90;;;0.90;;
53299;SDS011;39187;48.476;8.310;2022-12-26T15:41:17;1.30;;;1.30;;
53299;SDS011;39187;48.476;8.310;2022-12-26T15:47:05;0.90;;;0.90;;
53299;SDS011;39187;48.476;8.310;2022-12-26T15:50:06;1.30;;;1.30;;
53299;SDS011;39187;48.476;8.310;2022-12-26T15:55:34;1.47;;;1.37;;
53299;SDS011;39187;48.476;8.310;2022-12-26T16:01:32;3.20;;;1.43;;
53299;SDS011;39187;48.476;8.310;2022-12-26T16:07:06;1.57;;;1.50;;
53299;SDS011;39187;48.476;8.310;2022-12-26T16:12:17;1.63;;;1.53;;
53299;SDS011;39187;48.476;8.310;2022-12-26T16:14:45;2.60;;;2.47;;
53299;SDS011;39187;48.476;8.310;2022-12-26T16:19:51;1.80;;;1.70;;
53299;SDS011;39187;48.476;8.310;2022-12-26T16:22:20;2.43;;;2.33;;
53299;SDS011;39187;48.476;8.310;2022-12-26T16:25:08;1.87;;;1.77;;
53299;SDS011;39187;48.476;8.310;2022-12-26T16:27:40;1.90;;;1.80;;
53299;SDS011;39187;48.476;8.310;2022-12-26T16:30:18;1.60;;;1.50;;
53299;SDS011;39187;48.476;8.310;2022-12-26T16:32:49;2.20;;;2.10;;
53299;SDS011;39187;48.476;8.310;2022-12-26T16:35:23;2.07;;;1.97;;
53299;SDS011;39187;48.476;8.310;2022-12-26T16:38:00;2.50;;;2.40;;
53299;SDS011;39187;48.476;8.310;2022-12-26T16:40:31;2.47;;;2.37;;
53299;SDS011;39187;48.476;8.310;2022-12-26T16:43:00;2.50;;;2.40;;
53299;SDS011;39187;48.476;8.310;2022-12-26T16:45:32;3.00;;;2.90;;
53299;SDS011;39187;48.476;8.310;2022-12-26T16:47:59;2.67;;;2.47;;
53299;SDS011;39187;48.476;8.310;2022-12-26T16:50:27;2.60;;;2.50;;
53299;SDS011;39187;48.476;8.310;2022-12-26T16:53:40;2.17;;;2.07;;
53299;SDS011;39187;48.476;8.310;2022-12-26T16:55:49;2.90;;;2.60;;
53299;SDS011;39187;48.476;8.310;2022-12-26T16:58:29;2.80;;;2.70;;
53299;SDS011;39187;48.476;8.310;2022-12-26T17:01:06;2.43;;;2.33;;
53299;SDS011;39187;48.476;8.310;2022-12-26T17:03:47;2.60;;;2.50;;
53299;SDS011;39187;48.476;8.310;2022-12-26T17:07:02;3.00;;;2.80;;
53299;SDS011;39187;48.476;8.310;2022-12-26T17:09:31;2.47;;;2.37;;
53299;SDS011;39187;48.476;8.310;2022-12-26T17:12:05;2.43;;;2.33;;
53299;SDS011;39187;48.476;8.310;2022-12-26T17:14:37;5.00;;;2.60;;
53299;SDS011;39187;48.476;8.310;2022-12-26T17:17:05;2.20;;;2.10;;
53299;SDS011;39187;48.476;8.310;2022-12-26T17:19:37;2.67;;;2.30;;
53299;SDS011;39187;48.476;8.310;2022-12-26T17:27:45;3.13;;;3.03;;
53299;SDS011;39187;48.476;8.310;2022-12-26T17:32:54;4.03;;;3.33;;
53299;SDS011;39187;48.476;8.310;2022-12-26T17:35:26;2.83;;;2.73;;
53299;SDS011;39187;48.476;8.310;2022-12-26T17:38:16;4.23;;;3.03;;
53299;SDS011;39187;48.476;8.310;2022-12-26T17:40:43;3.20;;;3.00;;
53299;SDS011;39187;48.476;8.310;2022-12-26T17:45:40;3.40;;;3.20;;
53299;SDS011;39187;48.476;8.310;2022-12-26T17:48:08;4.40;;;4.10;;
53299;SDS011;39187;48.476;8.310;2022-12-26T17:50:36;2.93;;;2.83;;
53299;SDS011;39187;48.476;8.310;2022-12-26T17:53:04;4.10;;;2.93;;
53299;SDS011;39187;48.476;8.310;2022-12-26T17:55:36;3.53;;;3.23;;
53299;SDS011;39187;48.476;8.310;2022-12-26T17:58:02;2.90;;;2.70;;
53299;SDS011;39187;48.476;8.310;2022-12-26T18:00:27;5.80;;;2.90;;
53299;SDS011;39187;48.476;8.310;2022-12-26T18:02:53;2.83;;;2.73;;
53299;SDS011;39187;48.476;8.310;2022-12-26T18:05:19;3.10;;;2.07;;
53299;SDS011;39187;48.476;8.310;2022-12-26T18:07:46;2.73;;;2.63;;
53299;SDS011;39187;48.476;8.310;2022-12-26T18:10:19;2.77;;;2.67;;
53299;SDS011;39187;48.476;8.310;2022-12-26T18:12:49;2.53;;;2.43;;
53299;SDS011;39187;48.476;8.310;2022-12-26T18:15:16;2.53;;;2.03;;
53299;SDS011;39187;48.476;8.310;2022-12-26T18:17:42;0.70;;;0.67;;
53299;SDS011;39187;48.476;8.310;2022-12-26T18:20:09;0.93;;;0.60;;
53299;SDS011;39187;48.476;8.310;2022-12-26T18:22:39;0.60;;;0.60;;
53299;SDS011;39187;48.476;8.310;2022-12-26T18:25:05;0.50;;;0.50;;
53299;SDS011;39187;48.476;8.310;2022-12-26T18:27:31;2.60;;;0.50;;
53299;SDS011;39187;48.476;8.310;2022-12-26T18:29:58;0.50;;;0.50;;
53299;SDS011;39187;48.476;8.310;2022-12-26T18:32:28;0.53;;;0.53;;
53299;SDS011;39187;48.476;8.310;2022-12-26T18:34:56;0.50;;;0.50;;
53299;SDS011;39187;48.476;8.310;2022-12-26T18:37:22;0.40;;;0.40;;
53299;SDS011;39187;48.476;8.310;2022-12-26T18:39:49;0.50;;;0.50;;
53299;SDS011;39187;48.476;8.310;2022-12-26T18:42:15;0.50;;;0.50;;
53299;SDS011;39187;48.476;8.310;2022-12-26T18:44:41;0.90;;;0.90;;
53299;SDS011;39187;48.476;8.310;2022-12-26T18:47:15;0.57;;;0.57;;
53299;SDS011;39187;48.476;8.310;2022-12-26T18:49:44;0.80;;;0.80;;
53299;SDS011;39187;48.476;8.310;2022-12-26T18:52:10;0.60;;;0.60;;
53299;SDS011;39187;48.476;8.310;2022-12-26T18:54:37;0.60;;;0.60;;
53299;SDS011;39187;48.476;8.310;2022-12-26T18:57:03;2.00;;;0.80;;
53299;SDS011;39187;48.476;8.310;2022-12-26T18:59:30;1.00;;;0.60;;
53299;SDS011;39187;48.476;8.310;2022-12-26T19:01:56;0.80;;;0.80;;
53299;SDS011;39187;48.476;8.310;2022-12-26T19:04:22;2.00;;;0.80;;
53299;SDS011;39187;48.476;8.310;2022-12-26T19:06:47;2.10;;;0.87;;
53299;SDS011;39187;48.476;8.310;2022-12-26T19:09:13;0.70;;;0.70;;